sensor_id;sensor_type;location;lat;lon;timestamp;P1;durP1;ratioP1;P2;durP2;ratioP2
18789;SDS011;9523;42.650;23.386;2024-01-25T00:00:45;14.60;;;8.27;;
18789;SDS011;9523;42.650;23.386;2024-01-25T00:03:12;15.27;;;8.47;;
18789;SDS011;9523;42.650;23.386;2024-01-25T00:05:38;12.63;;;7.40;;
18789;SDS011;9523;42.650;23.386;2024-01-25T00:08:07;12.83;;;6.93;;
18789;SDS011;9523;42.650;23.386;2024-01-25T00:10:33;16.47;;;7.60;;
18789;SDS011;9523;42.650;23.386;2024-01-25T00:13:00;16.33;;;8.13;;
18789;SDS011;9523;42.650;23.386;2024-01-25T00:15:27;13.77;;;8.00;;
18789;SDS011;9523;42.650;23.386;2024-01-25T00:17:54;15.97;;;8.53;;
18789;SDS011;9523;42.650;23.386;2024-01-25T00:20:22;11.97;;;7.50;;
18789;SDS011;9523;42.650;23.386;2024-01-25T00:22:48;14.63;;;7.40;;
18789;SDS011;9523;42.650;23.386;2024-01-25T00:25:16;12.03;;;6.47;;
18789;SDS011;9523;42.650;23.386;2024-01-25T00:27:43;14.23;;;6.50;;
18789;SDS011;9523;42.650;23.386;2024-01-25T00:30:10;13.93;;;6.33;;
18789;SDS011;9523;42.650;23.386;2024-01-25T00:32:37;13.10;;;6.67;;
18789;SDS011;9523;42.650;23.386;2024-01-25T00:35:04;12.13;;;6.27;;
18789;SDS011;9523;42.650;23.386;2024-01-25T00:37:31;15.43;;;6.60;;
18789;SDS011;9523;42.650;23.386;2024-01-25T00:39:58;13.77;;;7.37;;
18789;SDS011;9523;42.650;23.386;2024-01-25T00:42:26;12.50;;;6.43;;
18789;SDS011;9523;42.650;23.386;2024-01-25T00:44:54;10.87;;;6.00;;
18789;SDS011;9523;42.650;23.386;2024-01-25T00:47:21;11.00;;;6.63;;
18789;SDS011;9523;42.650;23.386;2024-01-25T00:49:48;13.13;;;6.77;;
18789;SDS011;9523;42.650;23.386;2024-01-25T00:52:15;11.40;;;6.40;;
18789;SDS011;9523;42.650;23.386;2024-01-25T00:54:42;9.20;;;5.77;;
18789;SDS011;9523;42.650;23.386;2024-01-25T00:57:09;9.33;;;5.97;;
18789;SDS011;9523;42.650;23.386;2024-01-25T00:59:38;10.00;;;6.77;;
18789;SDS011;9523;42.650;23.386;2024-01-25T01:02:04;9.33;;;6.40;;
18789;SDS011;9523;42.650;23.386;2024-01-25T01:04:32;12.03;;;6.37;;
18789;SDS011;9523;42.650;23.386;2024-01-25T01:06:59;11.20;;;6.20;;
18789;SDS011;9523;42.650;23.386;2024-01-25T01:09:26;12.03;;;6.93;;
18789;SDS011;9523;42.650;23.386;2024-01-25T01:11:52;13.90;;;6.87;;
18789;SDS011;9523;42.650;23.386;2024-01-25T01:14:19;11.30;;;5.93;;
18789;SDS011;9523;42.650;23.386;2024-01-25T01:16:47;11.43;;;6.60;;
18789;SDS011;9523;42.650;23.386;2024-01-25T01:19:15;13.90;;;6.30;;
18789;SDS011;9523;42.650;23.386;2024-01-25T01:21:42;13.63;;;7.13;;
18789;SDS011;9523;42.650;23.386;2024-01-25T01:24:09;10.90;;;7.00;;
18789;SDS011;9523;42.650;23.386;2024-01-25T01:26:35;13.80;;;7.67;;
18789;SDS011;9523;42.650;23.386;2024-01-25T01:29:02;14.63;;;7.27;;
18789;SDS011;9523;42.650;23.386;2024-01-25T01:31:29;13.90;;;7.23;;
18789;SDS011;9523;42.650;23.386;2024-01-25T01:33:57;12.60;;;7.17;;
18789;SDS011;9523;42.650;23.386;2024-01-25T01:36:24;11.87;;;7.67;;
18789;SDS011;9523;42.650;23.386;2024-01-25T01:38:51;12.23;;;7.37;;
18789;SDS011;9523;42.650;23.386;2024-01-25T01:41:17;10.40;;;6.97;;
18789;SDS011;9523;42.650;23.386;2024-01-25T01:43:44;12.77;;;7.00;;
18789;SDS011;9523;42.650;23.386;2024-01-25T01:46:11;17.93;;;9.07;;
18789;SDS011;9523;42.650;23.386;2024-01-25T01:48:39;14.60;;;8.57;;
18789;SDS011;9523;42.650;23.386;2024-01-25T01:51:07;12.07;;;8.30;;
18789;SDS011;9523;42.650;23.386;2024-01-25T01:53:34;13.03;;;7.83;;
18789;SDS011;9523;42.650;23.386;2024-01-25T01:56:01;13.53;;;7.93;;
18789;SDS011;9523;42.650;23.386;2024-01-25T01:58:28;13.33;;;7.03;;
18789;SDS011;9523;42.650;23.386;2024-01-25T02:00:55;13.80;;;7.70;;
18789;SDS011;9523;42.650;23.386;2024-01-25T02:03:22;10.93;;;7.47;;
18789;SDS011;9523;42.650;23.386;2024-01-25T02:05:48;12.30;;;7.60;;
18789;SDS011;9523;42.650;23.386;2024-01-25T02:08:17;12.87;;;7.57;;
18789;SDS011;9523;42.650;23.386;2024-01-25T02:10:43;15.70;;;7.77;;
18789;SDS011;9523;42.650;23.386;2024-01-25T02:13:10;18.20;;;9.20;;
18789;SDS011;9523;42.650;23.386;2024-01-25T02:15:37;17.53;;;9.93;;
18789;SDS011;9523;42.650;23.386;2024-01-25T02:18:03;21.93;;;10.63;;
18789;SDS011;9523;42.650;23.386;2024-01-25T02:20:30;19.00;;;10.40;;
18789;SDS011;9523;42.650;23.386;2024-01-25T02:22:58;19.70;;;10.87;;
18789;SDS011;9523;42.650;23.386;2024-01-25T02:25:25;22.77;;;12.30;;
18789;SDS011;9523;42.650;23.386;2024-01-25T02:27:52;20.40;;;11.57;;
18789;SDS011;9523;42.650;23.386;2024-01-25T02:30:18;20.27;;;12.60;;
18789;SDS011;9523;42.650;23.386;2024-01-25T02:32:45;22.93;;;12.43;;
18789;SDS011;9523;42.650;23.386;2024-01-25T02:35:12;21.87;;;11.40;;
18789;SDS011;9523;42.650;23.386;2024-01-25T02:37:39;23.73;;;11.70;;
18789;SDS011;9523;42.650;23.386;2024-01-25T02:40:07;18.87;;;10.70;;
18789;SDS011;9523;42.650;23.386;2024-01-25T02:42:34;19.97;;;10.67;;
18789;SDS011;9523;42.650;23.386;2024-01-25T02:45:00;19.40;;;10.20;;
18789;SDS011;9523;42.650;23.386;2024-01-25T02:47:26;16.03;;;9.90;;
18789;SDS011;9523;42.650;23.386;2024-01-25T02:49:53;19.47;;;10.87;;
18789;SDS011;9523;42.650;23.386;2024-01-25T02:52:20;18.47;;;10.30;;
18789;SDS011;9523;42.650;23.386;2024-01-25T02:54:46;16.60;;;10.33;;
18789;SDS011;9523;42.650;23.386;2024-01-25T02:57:15;19.93;;;11.30;;
18789;SDS011;9523;42.650;23.386;2024-01-25T02:59:42;17.63;;;10.30;;
18789;SDS011;9523;42.650;23.386;2024-01-25T03:02:09;17.70;;;10.23;;
18789;SDS011;9523;42.650;23.386;2024-01-25T03:04:35;18.17;;;10.53;;
18789;SDS011;9523;42.650;23.386;2024-01-25T03:07:02;22.73;;;11.03;;
18789;SDS011;9523;42.650;23.386;2024-01-25T03:09:29;20.83;;;10.87;;
18789;SDS011;9523;42.650;23.386;2024-01-25T03:11:56;19.77;;;10.60;;
18789;SDS011;9523;42.650;23.386;2024-01-25T03:14:24;16.87;;;10.27;;
18789;SDS011;9523;42.650;23.386;2024-01-25T03:16:50;18.07;;;8.83;;
18789;SDS011;9523;42.650;23.386;2024-01-25T03:19:17;13.50;;;7.63;;
18789;SDS011;9523;42.650;23.386;2024-01-25T03:21:44;8.20;;;4.60;;
18789;SDS011;9523;42.650;23.386;2024-01-25T03:24:11;5.67;;;3.03;;
18789;SDS011;9523;42.650;23.386;2024-01-25T03:26:39;1.10;;;0.80;;
18789;SDS011;9523;42.650;23.386;2024-01-25T03:29:05;1.97;;;0.90;;
18789;SDS011;9523;42.650;23.386;2024-01-25T03:31:33;0.80;;;0.57;;
18789;SDS011;9523;42.650;23.386;2024-01-25T03:34:01;0.90;;;0.50;;
18789;SDS011;9523;42.650;23.386;2024-01-25T03:36:27;1.53;;;0.70;;
18789;SDS011;9523;42.650;23.386;2024-01-25T03:38:54;0.60;;;0.60;;
18789;SDS011;9523;42.650;23.386;2024-01-25T03:41:23;3.53;;;0.80;;
18789;SDS011;9523;42.650;23.386;2024-01-25T03:43:50;1.27;;;0.70;;
18789;SDS011;9523;42.650;23.386;2024-01-25T03:46:17;1.50;;;0.63;;
18789;SDS011;9523;42.650;23.386;2024-01-25T03:48:45;0.87;;;0.73;;
18789;SDS011;9523;42.650;23.386;2024-01-25T03:51:11;0.90;;;0.60;;
18789;SDS011;9523;42.650;23.386;2024-01-25T03:53:38;1.20;;;0.70;;
18789;SDS011;9523;42.650;23.386;2024-01-25T03:56:10;1.00;;;0.80;;
18789;SDS011;9523;42.650;23.386;2024-01-25T03:58:36;1.20;;;0.60;;
18789;SDS011;9523;42.650;23.386;2024-01-25T04:01:03;2.83;;;0.83;;
18789;SDS011;9523;42.650;23.386;2024-01-25T04:03:31;3.73;;;0.83;;
18789;SDS011;9523;42.650;23.386;2024-01-25T04:05:59;1.53;;;0.80;;
18789;SDS011;9523;42.650;23.386;2024-01-25T04:08:25;2.27;;;0.80;;
18789;SDS011;9523;42.650;23.386;2024-01-25T04:10:52;3.63;;;1.07;;
18789;SDS011;9523;42.650;23.386;2024-01-25T04:13:19;0.80;;;0.77;;
18789;SDS011;9523;42.650;23.386;2024-01-25T04:15:45;1.87;;;0.90;;
18789;SDS011;9523;42.650;23.386;2024-01-25T04:18:12;1.23;;;0.87;;
18789;SDS011;9523;42.650;23.386;2024-01-25T04:20:39;0.90;;;0.80;;
18789;SDS011;9523;42.650;23.386;2024-01-25T04:23:07;1.83;;;0.73;;
18789;SDS011;9523;42.650;23.386;2024-01-25T04:25:34;1.33;;;0.80;;
18789;SDS011;9523;42.650;23.386;2024-01-25T04:28:00;0.90;;;0.80;;
18789;SDS011;9523;42.650;23.386;2024-01-25T04:30:27;1.47;;;0.80;;
18789;SDS011;9523;42.650;23.386;2024-01-25T04:32:56;0.93;;;0.70;;
18789;SDS011;9523;42.650;23.386;2024-01-25T04:35:28;1.73;;;0.90;;
18789;SDS011;9523;42.650;23.386;2024-01-25T04:37:56;2.07;;;1.43;;
18789;SDS011;9523;42.650;23.386;2024-01-25T04:40:24;2.63;;;1.03;;
18789;SDS011;9523;42.650;23.386;2024-01-25T04:42:51;1.33;;;0.90;;
18789;SDS011;9523;42.650;23.386;2024-01-25T04:45:18;1.97;;;1.17;;
18789;SDS011;9523;42.650;23.386;2024-01-25T04:47:44;2.70;;;1.27;;
18789;SDS011;9523;42.650;23.386;2024-01-25T04:50:11;3.80;;;2.23;;
18789;SDS011;9523;42.650;23.386;2024-01-25T04:52:38;2.77;;;1.57;;
18789;SDS011;9523;42.650;23.386;2024-01-25T04:55:05;1.80;;;1.10;;
18789;SDS011;9523;42.650;23.386;2024-01-25T04:57:33;3.27;;;1.77;;
18789;SDS011;9523;42.650;23.386;2024-01-25T05:00:00;2.60;;;1.83;;
18789;SDS011;9523;42.650;23.386;2024-01-25T05:02:26;3.00;;;2.23;;
18789;SDS011;9523;42.650;23.386;2024-01-25T05:04:53;4.07;;;2.33;;
18789;SDS011;9523;42.650;23.386;2024-01-25T05:07:20;3.57;;;2.30;;
18789;SDS011;9523;42.650;23.386;2024-01-25T05:09:47;5.97;;;2.57;;
18789;SDS011;9523;42.650;23.386;2024-01-25T05:12:14;2.83;;;2.23;;
18789;SDS011;9523;42.650;23.386;2024-01-25T05:14:42;2.70;;;1.90;;
18789;SDS011;9523;42.650;23.386;2024-01-25T05:17:08;3.70;;;2.40;;
18789;SDS011;9523;42.650;23.386;2024-01-25T05:19:35;5.53;;;1.73;;
18789;SDS011;9523;42.650;23.386;2024-01-25T05:22:02;3.13;;;1.57;;
18789;SDS011;9523;42.650;23.386;2024-01-25T05:24:31;2.47;;;1.63;;
18789;SDS011;9523;42.650;23.386;2024-01-25T05:26:58;3.67;;;1.80;;
18789;SDS011;9523;42.650;23.386;2024-01-25T05:29:25;4.97;;;1.70;;
18789;SDS011;9523;42.650;23.386;2024-01-25T05:31:53;2.20;;;1.43;;
18789;SDS011;9523;42.650;23.386;2024-01-25T05:34:19;2.10;;;1.30;;
18789;SDS011;9523;42.650;23.386;2024-01-25T05:36:46;2.33;;;1.23;;
18789;SDS011;9523;42.650;23.386;2024-01-25T05:39:13;1.87;;;1.23;;
18789;SDS011;9523;42.650;23.386;2024-01-25T05:41:40;2.67;;;1.40;;
18789;SDS011;9523;42.650;23.386;2024-01-25T05:44:06;3.67;;;1.10;;
18789;SDS011;9523;42.650;23.386;2024-01-25T05:46:33;2.67;;;1.50;;
18789;SDS011;9523;42.650;23.386;2024-01-25T05:49:01;2.23;;;1.43;;
18789;SDS011;9523;42.650;23.386;2024-01-25T05:51:28;3.60;;;1.37;;
18789;SDS011;9523;42.650;23.386;2024-01-25T05:53:55;5.17;;;1.97;;
18789;SDS011;9523;42.650;23.386;2024-01-25T05:56:21;3.97;;;1.60;;
18789;SDS011;9523;42.650;23.386;2024-01-25T05:58:49;3.50;;;1.60;;
18789;SDS011;9523;42.650;23.386;2024-01-25T06:01:15;3.47;;;1.57;;
18789;SDS011;9523;42.650;23.386;2024-01-25T06:03:42;4.23;;;1.40;;
18789;SDS011;9523;42.650;23.386;2024-01-25T06:06:10;1.87;;;1.20;;
18789;SDS011;9523;42.650;23.386;2024-01-25T06:08:37;2.33;;;1.37;;
18789;SDS011;9523;42.650;23.386;2024-01-25T06:11:04;3.10;;;1.30;;
18789;SDS011;9523;42.650;23.386;2024-01-25T06:13:31;3.40;;;1.70;;
18789;SDS011;9523;42.650;23.386;2024-01-25T06:15:57;2.80;;;1.37;;
18789;SDS011;9523;42.650;23.386;2024-01-25T06:18:24;2.67;;;1.53;;
18789;SDS011;9523;42.650;23.386;2024-01-25T06:20:51;4.67;;;1.50;;
18789;SDS011;9523;42.650;23.386;2024-01-25T06:23:19;3.07;;;1.80;;
18789;SDS011;9523;42.650;23.386;2024-01-25T06:25:45;2.17;;;1.17;;
18789;SDS011;9523;42.650;23.386;2024-01-25T06:28:12;3.27;;;1.70;;
18789;SDS011;9523;42.650;23.386;2024-01-25T06:30:39;4.10;;;1.77;;
18789;SDS011;9523;42.650;23.386;2024-01-25T06:33:05;4.10;;;1.90;;
18789;SDS011;9523;42.650;23.386;2024-01-25T06:35:33;3.17;;;1.47;;
18789;SDS011;9523;42.650;23.386;2024-01-25T06:37:59;2.90;;;1.67;;
18789;SDS011;9523;42.650;23.386;2024-01-25T06:40:27;3.13;;;1.60;;
18789;SDS011;9523;42.650;23.386;2024-01-25T06:42:54;6.23;;;1.53;;
18789;SDS011;9523;42.650;23.386;2024-01-25T06:45:21;3.07;;;1.30;;
18789;SDS011;9523;42.650;23.386;2024-01-25T06:47:47;4.47;;;1.73;;
18789;SDS011;9523;42.650;23.386;2024-01-25T06:50:14;3.17;;;1.20;;
18789;SDS011;9523;42.650;23.386;2024-01-25T06:52:42;5.17;;;1.60;;
18789;SDS011;9523;42.650;23.386;2024-01-25T06:55:09;4.83;;;1.57;;
18789;SDS011;9523;42.650;23.386;2024-01-25T06:57:37;5.73;;;1.30;;
18789;SDS011;9523;42.650;23.386;2024-01-25T07:00:05;7.10;;;1.73;;
18789;SDS011;9523;42.650;23.386;2024-01-25T07:02:33;5.00;;;1.47;;
18789;SDS011;9523;42.650;23.386;2024-01-25T07:04:59;5.93;;;1.73;;
18789;SDS011;9523;42.650;23.386;2024-01-25T07:07:26;5.80;;;1.87;;
18789;SDS011;9523;42.650;23.386;2024-01-25T07:09:53;4.50;;;1.63;;
18789;SDS011;9523;42.650;23.386;2024-01-25T07:12:20;8.23;;;1.90;;
18789;SDS011;9523;42.650;23.386;2024-01-25T07:14:51;5.73;;;1.93;;
18789;SDS011;9523;42.650;23.386;2024-01-25T07:17:17;5.90;;;1.70;;
18789;SDS011;9523;42.650;23.386;2024-01-25T07:19:44;6.60;;;1.80;;
18789;SDS011;9523;42.650;23.386;2024-01-25T07:22:11;3.40;;;1.80;;
18789;SDS011;9523;42.650;23.386;2024-01-25T07:24:40;7.57;;;2.17;;
18789;SDS011;9523;42.650;23.386;2024-01-25T07:27:06;5.77;;;2.30;;
18789;SDS011;9523;42.650;23.386;2024-01-25T07:29:33;4.40;;;1.50;;
18789;SDS011;9523;42.650;23.386;2024-01-25T07:32:01;6.20;;;1.97;;
18789;SDS011;9523;42.650;23.386;2024-01-25T07:34:28;2.03;;;0.97;;
18789;SDS011;9523;42.650;23.386;2024-01-25T07:36:55;5.10;;;1.83;;
18789;SDS011;9523;42.650;23.386;2024-01-25T07:39:22;5.93;;;1.97;;
18789;SDS011;9523;42.650;23.386;2024-01-25T07:41:48;14.87;;;1.87;;
18789;SDS011;9523;42.650;23.386;2024-01-25T07:44:15;4.00;;;1.67;;
18789;SDS011;9523;42.650;23.386;2024-01-25T07:46:42;3.00;;;1.57;;
18789;SDS011;9523;42.650;23.386;2024-01-25T07:49:11;6.03;;;1.90;;
18789;SDS011;9523;42.650;23.386;2024-01-25T07:51:37;5.37;;;2.20;;
18789;SDS011;9523;42.650;23.386;2024-01-25T07:54:04;4.87;;;1.90;;
18789;SDS011;9523;42.650;23.386;2024-01-25T07:56:31;7.13;;;3.03;;
18789;SDS011;9523;42.650;23.386;2024-01-25T07:58:58;6.17;;;2.20;;
18789;SDS011;9523;42.650;23.386;2024-01-25T08:01:25;5.47;;;2.17;;
18789;SDS011;9523;42.650;23.386;2024-01-25T08:03:52;4.80;;;1.67;;
18789;SDS011;9523;42.650;23.386;2024-01-25T08:06:20;5.87;;;2.17;;
18789;SDS011;9523;42.650;23.386;2024-01-25T08:08:46;6.33;;;1.70;;
18789;SDS011;9523;42.650;23.386;2024-01-25T08:11:13;2.83;;;1.70;;
18789;SDS011;9523;42.650;23.386;2024-01-25T08:13:43;6.20;;;2.20;;
18789;SDS011;9523;42.650;23.386;2024-01-25T08:16:10;5.17;;;2.27;;
18789;SDS011;9523;42.650;23.386;2024-01-25T08:18:39;8.70;;;2.33;;
18789;SDS011;9523;42.650;23.386;2024-01-25T08:21:05;3.87;;;2.00;;
18789;SDS011;9523;42.650;23.386;2024-01-25T08:23:33;5.77;;;2.03;;
18789;SDS011;9523;42.650;23.386;2024-01-25T08:26:00;4.53;;;2.13;;
18789;SDS011;9523;42.650;23.386;2024-01-25T08:28:29;5.13;;;2.17;;
18789;SDS011;9523;42.650;23.386;2024-01-25T08:30:56;5.20;;;2.17;;
18789;SDS011;9523;42.650;23.386;2024-01-25T08:33:23;8.23;;;2.73;;
18789;SDS011;9523;42.650;23.386;2024-01-25T08:35:50;4.43;;;2.20;;
18789;SDS011;9523;42.650;23.386;2024-01-25T08:38:17;4.03;;;2.00;;
18789;SDS011;9523;42.650;23.386;2024-01-25T08:40:45;6.43;;;1.87;;
18789;SDS011;9523;42.650;23.386;2024-01-25T08:43:12;7.23;;;2.00;;
18789;SDS011;9523;42.650;23.386;2024-01-25T08:45:38;6.63;;;2.30;;
18789;SDS011;9523;42.650;23.386;2024-01-25T08:48:05;8.03;;;1.90;;
18789;SDS011;9523;42.650;23.386;2024-01-25T08:50:34;4.93;;;2.43;;
18789;SDS011;9523;42.650;23.386;2024-01-25T08:53:00;5.37;;;1.90;;
18789;SDS011;9523;42.650;23.386;2024-01-25T08:55:27;7.03;;;2.67;;
18789;SDS011;9523;42.650;23.386;2024-01-25T08:57:55;5.67;;;2.50;;
18789;SDS011;9523;42.650;23.386;2024-01-25T09:00:22;6.10;;;2.13;;
18789;SDS011;9523;42.650;23.386;2024-01-25T09:02:49;5.50;;;2.13;;
18789;SDS011;9523;42.650;23.386;2024-01-25T09:05:16;6.47;;;2.27;;
18789;SDS011;9523;42.650;23.386;2024-01-25T09:07:43;7.80;;;2.30;;
18789;SDS011;9523;42.650;23.386;2024-01-25T09:10:10;4.93;;;2.13;;
18789;SDS011;9523;42.650;23.386;2024-01-25T09:12:37;6.97;;;2.37;;
18789;SDS011;9523;42.650;23.386;2024-01-25T09:15:06;7.27;;;3.00;;
18789;SDS011;9523;42.650;23.386;2024-01-25T09:17:33;6.80;;;1.90;;
18789;SDS011;9523;42.650;23.386;2024-01-25T09:20:00;6.17;;;2.30;;
18789;SDS011;9523;42.650;23.386;2024-01-25T09:22:28;5.90;;;2.13;;
18789;SDS011;9523;42.650;23.386;2024-01-25T09:24:55;6.53;;;2.50;;
18789;SDS011;9523;42.650;23.386;2024-01-25T09:27:21;9.53;;;2.27;;
18789;SDS011;9523;42.650;23.386;2024-01-25T09:29:48;5.90;;;2.13;;
18789;SDS011;9523;42.650;23.386;2024-01-25T09:32:16;6.90;;;2.00;;
18789;SDS011;9523;42.650;23.386;2024-01-25T09:34:45;5.33;;;2.10;;
18789;SDS011;9523;42.650;23.386;2024-01-25T09:37:12;6.13;;;2.30;;
18789;SDS011;9523;42.650;23.386;2024-01-25T09:39:40;5.87;;;2.40;;
18789;SDS011;9523;42.650;23.386;2024-01-25T09:42:05;9.37;;;2.10;;
18789;SDS011;9523;42.650;23.386;2024-01-25T09:44:33;4.93;;;2.13;;
18789;SDS011;9523;42.650;23.386;2024-01-25T09:47:00;7.13;;;2.50;;
18789;SDS011;9523;42.650;23.386;2024-01-25T09:49:30;7.13;;;2.33;;
18789;SDS011;9523;42.650;23.386;2024-01-25T09:51:57;8.17;;;2.33;;
18789;SDS011;9523;42.650;23.386;2024-01-25T09:54:28;10.27;;;2.90;;
18789;SDS011;9523;42.650;23.386;2024-01-25T09:56:57;5.97;;;2.67;;
18789;SDS011;9523;42.650;23.386;2024-01-25T09:59:23;5.73;;;2.30;;
18789;SDS011;9523;42.650;23.386;2024-01-25T10:01:53;5.37;;;2.27;;
18789;SDS011;9523;42.650;23.386;2024-01-25T10:04:20;12.37;;;4.60;;
18789;SDS011;9523;42.650;23.386;2024-01-25T10:06:50;5.10;;;2.80;;
18789;SDS011;9523;42.650;23.386;2024-01-25T10:09:17;6.77;;;2.93;;
18789;SDS011;9523;42.650;23.386;2024-01-25T10:11:43;9.00;;;2.67;;
18789;SDS011;9523;42.650;23.386;2024-01-25T10:14:11;7.37;;;2.43;;
18789;SDS011;9523;42.650;23.386;2024-01-25T10:16:40;5.93;;;2.53;;
18789;SDS011;9523;42.650;23.386;2024-01-25T10:19:07;9.03;;;3.07;;
18789;SDS011;9523;42.650;23.386;2024-01-25T10:21:35;6.47;;;2.63;;
18789;SDS011;9523;42.650;23.386;2024-01-25T10:24:03;6.97;;;2.90;;
18789;SDS011;9523;42.650;23.386;2024-01-25T10:26:31;11.87;;;3.47;;
18789;SDS011;9523;42.650;23.386;2024-01-25T10:29:00;8.47;;;3.17;;
18789;SDS011;9523;42.650;23.386;2024-01-25T10:31:28;7.20;;;2.83;;
18789;SDS011;9523;42.650;23.386;2024-01-25T10:33:55;6.70;;;3.00;;
18789;SDS011;9523;42.650;23.386;2024-01-25T10:36:23;5.33;;;2.60;;
18789;SDS011;9523;42.650;23.386;2024-01-25T10:38:49;7.97;;;2.80;;
18789;SDS011;9523;42.650;23.386;2024-01-25T10:41:18;8.00;;;3.30;;
18789;SDS011;9523;42.650;23.386;2024-01-25T10:43:45;7.27;;;3.40;;
18789;SDS011;9523;42.650;23.386;2024-01-25T10:46:12;9.03;;;2.70;;
18789;SDS011;9523;42.650;23.386;2024-01-25T10:48:39;9.47;;;3.20;;
18789;SDS011;9523;42.650;23.386;2024-01-25T10:51:06;5.60;;;2.83;;
18789;SDS011;9523;42.650;23.386;2024-01-25T10:53:33;9.13;;;2.60;;
18789;SDS011;9523;42.650;23.386;2024-01-25T10:56:01;8.30;;;2.83;;
18789;SDS011;9523;42.650;23.386;2024-01-25T10:58:31;8.40;;;3.13;;
18789;SDS011;9523;42.650;23.386;2024-01-25T11:00:58;8.27;;;2.73;;
18789;SDS011;9523;42.650;23.386;2024-01-25T11:03:26;6.53;;;2.80;;
18789;SDS011;9523;42.650;23.386;2024-01-25T11:05:54;5.87;;;1.90;;
18789;SDS011;9523;42.650;23.386;2024-01-25T11:08:21;5.73;;;3.00;;
18789;SDS011;9523;42.650;23.386;2024-01-25T11:10:50;5.97;;;3.17;;
18789;SDS011;9523;42.650;23.386;2024-01-25T11:13:22;7.10;;;2.90;;
18789;SDS011;9523;42.650;23.386;2024-01-25T11:15:51;6.33;;;2.20;;
18789;SDS011;9523;42.650;23.386;2024-01-25T11:18:18;5.13;;;2.40;;
18789;SDS011;9523;42.650;23.386;2024-01-25T11:20:46;9.37;;;2.90;;
18789;SDS011;9523;42.650;23.386;2024-01-25T11:23:14;10.17;;;3.30;;
18789;SDS011;9523;42.650;23.386;2024-01-25T11:25:44;7.27;;;2.70;;
18789;SDS011;9523;42.650;23.386;2024-01-25T11:28:10;5.50;;;2.47;;
18789;SDS011;9523;42.650;23.386;2024-01-25T11:30:37;8.73;;;2.90;;
18789;SDS011;9523;42.650;23.386;2024-01-25T11:33:06;8.83;;;2.83;;
18789;SDS011;9523;42.650;23.386;2024-01-25T11:35:33;5.87;;;2.70;;
18789;SDS011;9523;42.650;23.386;2024-01-25T11:37:59;5.63;;;2.33;;
18789;SDS011;9523;42.650;23.386;2024-01-25T11:40:26;5.67;;;2.53;;
18789;SDS011;9523;42.650;23.386;2024-01-25T11:42:55;10.97;;;2.97;;
18789;SDS011;9523;42.650;23.386;2024-01-25T11:45:22;5.13;;;2.77;;
18789;SDS011;9523;42.650;23.386;2024-01-25T11:47:49;7.90;;;2.70;;
18789;SDS011;9523;42.650;23.386;2024-01-25T11:50:17;5.27;;;2.47;;
18789;SDS011;9523;42.650;23.386;2024-01-25T11:52:44;8.00;;;2.40;;
18789;SDS011;9523;42.650;23.386;2024-01-25T11:55:10;5.90;;;2.80;;
18789;SDS011;9523;42.650;23.386;2024-01-25T11:57:38;7.70;;;2.40;;
18789;SDS011;9523;42.650;23.386;2024-01-25T12:00:06;9.73;;;2.90;;
18789;SDS011;9523;42.650;23.386;2024-01-25T12:02:34;11.97;;;2.63;;
18789;SDS011;9523;42.650;23.386;2024-01-25T12:05:01;7.13;;;2.33;;
18789;SDS011;9523;42.650;23.386;2024-01-25T12:07:30;7.13;;;2.57;;
18789;SDS011;9523;42.650;23.386;2024-01-25T12:09:58;4.30;;;2.10;;
18789;SDS011;9523;42.650;23.386;2024-01-25T12:12:25;10.13;;;3.00;;
18789;SDS011;9523;42.650;23.386;2024-01-25T12:14:56;5.60;;;1.90;;
18789;SDS011;9523;42.650;23.386;2024-01-25T12:17:23;7.20;;;2.23;;
18789;SDS011;9523;42.650;23.386;2024-01-25T12:19:50;5.43;;;1.93;;
18789;SDS011;9523;42.650;23.386;2024-01-25T12:22:19;7.63;;;2.10;;
18789;SDS011;9523;42.650;23.386;2024-01-25T12:24:47;5.20;;;1.77;;
18789;SDS011;9523;42.650;23.386;2024-01-25T12:27:14;6.80;;;2.47;;
18789;SDS011;9523;42.650;23.386;2024-01-25T12:29:41;8.87;;;2.30;;
18789;SDS011;9523;42.650;23.386;2024-01-25T12:32:09;5.37;;;1.90;;
18789;SDS011;9523;42.650;23.386;2024-01-25T12:34:36;5.43;;;1.60;;
18789;SDS011;9523;42.650;23.386;2024-01-25T12:37:04;5.53;;;2.10;;
18789;SDS011;9523;42.650;23.386;2024-01-25T12:39:31;8.17;;;2.20;;
18789;SDS011;9523;42.650;23.386;2024-01-25T12:41:59;8.83;;;2.40;;
18789;SDS011;9523;42.650;23.386;2024-01-25T12:44:26;5.50;;;2.20;;
18789;SDS011;9523;42.650;23.386;2024-01-25T12:46:53;7.13;;;2.30;;
18789;SDS011;9523;42.650;23.386;2024-01-25T12:49:19;7.23;;;2.50;;
18789;SDS011;9523;42.650;23.386;2024-01-25T12:51:48;9.77;;;3.00;;
18789;SDS011;9523;42.650;23.386;2024-01-25T12:54:17;6.97;;;2.13;;
18789;SDS011;9523;42.650;23.386;2024-01-25T12:56:44;5.87;;;2.40;;
18789;SDS011;9523;42.650;23.386;2024-01-25T12:59:13;5.57;;;2.20;;
18789;SDS011;9523;42.650;23.386;2024-01-25T13:01:40;6.73;;;2.60;;
18789;SDS011;9523;42.650;23.386;2024-01-25T13:04:06;6.83;;;2.07;;
18789;SDS011;9523;42.650;23.386;2024-01-25T13:06:33;8.67;;;2.33;;
18789;SDS011;9523;42.650;23.386;2024-01-25T13:09:00;4.93;;;1.90;;
18789;SDS011;9523;42.650;23.386;2024-01-25T13:11:28;6.10;;;2.33;;
18789;SDS011;9523;42.650;23.386;2024-01-25T13:13:55;4.67;;;1.93;;
18789;SDS011;9523;42.650;23.386;2024-01-25T13:16:23;5.60;;;1.97;;
18789;SDS011;9523;42.650;23.386;2024-01-25T13:18:50;4.80;;;1.83;;
18789;SDS011;9523;42.650;23.386;2024-01-25T13:21:17;3.87;;;1.73;;
18789;SDS011;9523;42.650;23.386;2024-01-25T13:23:43;6.03;;;1.70;;
18789;SDS011;9523;42.650;23.386;2024-01-25T13:26:10;5.00;;;1.83;;
18789;SDS011;9523;42.650;23.386;2024-01-25T13:28:37;8.40;;;2.10;;
18789;SDS011;9523;42.650;23.386;2024-01-25T13:31:04;7.50;;;2.27;;
18789;SDS011;9523;42.650;23.386;2024-01-25T13:33:32;5.50;;;2.73;;
18789;SDS011;9523;42.650;23.386;2024-01-25T13:35:58;3.47;;;1.80;;
18789;SDS011;9523;42.650;23.386;2024-01-25T13:38:25;9.03;;;2.50;;
18789;SDS011;9523;42.650;23.386;2024-01-25T13:40:52;6.67;;;2.03;;
18789;SDS011;9523;42.650;23.386;2024-01-25T13:43:19;4.70;;;2.10;;
18789;SDS011;9523;42.650;23.386;2024-01-25T13:45:46;6.00;;;2.20;;
18789;SDS011;9523;42.650;23.386;2024-01-25T13:48:12;6.03;;;2.10;;
18789;SDS011;9523;42.650;23.386;2024-01-25T13:50:41;4.90;;;1.63;;
18789;SDS011;9523;42.650;23.386;2024-01-25T13:53:08;10.63;;;2.43;;
18789;SDS011;9523;42.650;23.386;2024-01-25T13:55:34;8.67;;;2.20;;
18789;SDS011;9523;42.650;23.386;2024-01-25T13:58:01;7.50;;;2.63;;
18789;SDS011;9523;42.650;23.386;2024-01-25T14:00:28;6.63;;;2.30;;
18789;SDS011;9523;42.650;23.386;2024-01-25T14:02:55;8.70;;;2.47;;
18789;SDS011;9523;42.650;23.386;2024-01-25T14:05:25;4.93;;;2.10;;
18789;SDS011;9523;42.650;23.386;2024-01-25T14:07:53;5.33;;;2.23;;
18789;SDS011;9523;42.650;23.386;2024-01-25T14:10:20;8.23;;;2.20;;
18789;SDS011;9523;42.650;23.386;2024-01-25T14:12:46;4.73;;;2.20;;
18789;SDS011;9523;42.650;23.386;2024-01-25T14:15:13;10.17;;;2.80;;
18789;SDS011;9523;42.650;23.386;2024-01-25T14:17:40;8.87;;;3.23;;
18789;SDS011;9523;42.650;23.386;2024-01-25T14:20:06;10.77;;;2.93;;
18789;SDS011;9523;42.650;23.386;2024-01-25T14:22:33;6.20;;;2.47;;
18789;SDS011;9523;42.650;23.386;2024-01-25T14:25:02;5.97;;;2.43;;
18789;SDS011;9523;42.650;23.386;2024-01-25T14:27:29;7.83;;;2.20;;
18789;SDS011;9523;42.650;23.386;2024-01-25T14:29:55;8.70;;;2.60;;
18789;SDS011;9523;42.650;23.386;2024-01-25T14:32:22;4.90;;;2.17;;
18789;SDS011;9523;42.650;23.386;2024-01-25T14:34:49;7.23;;;2.37;;
18789;SDS011;9523;42.650;23.386;2024-01-25T14:37:16;5.60;;;2.50;;
18789;SDS011;9523;42.650;23.386;2024-01-25T14:39:42;8.57;;;2.90;;
18789;SDS011;9523;42.650;23.386;2024-01-25T14:42:10;6.73;;;2.13;;